sensor_id;sensor_type;location;lat;lon;timestamp;P1;P2;P0
47709;PMS7003;33473;51.640;5.892;2023-06-10T00:11:00;9.25;11.56;9.38
47709;PMS7003;33473;51.640;5.892;2023-06-10T00:24:20;9.97;12.11;9.38
47709;PMS7003;33473;51.640;5.892;2023-06-10T00:37:40;10.57;12.65;9.93
47709;PMS7003;33473;51.640;5.892;2023-06-10T00:50:59;10.93;12.76;9.93
47709;PMS7003;33473;51.640;5.892;2023-06-10T01:04:19;11.65;13.85;10.8
47709;PMS7003;33473;51.640;5.892;2023-06-10T01:17:39;11.53;13.74;10.58
47709;PMS7003;33473;51.640;5.892;2023-06-10T01:30:58;11.77;13.96;11.02
47709;PMS7003;33473;51.640;5.892;2023-06-10T01:44:18;12.61;14.62;10.91
47709;PMS7003;33473;51.640;5.892;2023-06-10T01:57:38;14.41;15.38;11.45
47709;PMS7003;33473;51.640;5.892;2023-06-10T02:10:57;13.93;15.6;11.45
47709;PMS7003;33473;51.640;5.892;2023-06-10T02:24:17;13.93;15.92;11.89
47709;PMS7003;33473;51.640;5.892;2023-06-10T02:37:37;14.89;16.47;12.0
47709;PMS7003;33473;51.640;5.892;2023-06-10T02:50:57;14.53;16.14;12.0
47709;PMS7003;33473;51.640;5.892;2023-06-10T03:04:16;14.89;16.47;12.22
47709;PMS7003;33473;51.640;5.892;2023-06-10T03:17:36;14.89;15.92;11.89
47709;PMS7003;33473;51.640;5.892;2023-06-10T03:30:56;14.41;15.38;11.45
47709;PMS7003;33473;51.640;5.892;2023-06-10T03:44:15;13.81;15.71;11.56
47709;PMS7003;33473;51.640;5.892;2023-06-10T03:57:35;14.29;15.27;11.35
47709;PMS7003;33473;51.640;5.892;2023-06-10T04:10:55;13.93;14.83;10.91
47709;PMS7003;33473;51.640;5.892;2023-06-10T04:24:14;11.65;13.74;10.26
47709;PMS7003;33473;51.640;5.892;2023-06-10T04:37:34;11.05;13.2;9.71
47709;PMS7003;33473;51.640;5.892;2023-06-10T04:50:54;10.93;13.09;9.49
47709;PMS7003;33473;51.640;5.892;2023-06-10T05:04:13;9.97;12.11;8.95
47709;PMS7003;33473;51.640;5.892;2023-06-10T05:17:33;9.37;11.45;8.4
47709;PMS7003;33473;51.640;5.892;2023-06-10T05:30:53;9.01;11.35;8.18
47709;PMS7003;33473;51.640;5.892;2023-06-10T05:44:13;9.13;11.45;8.08
47709;PMS7003;33473;51.640;5.892;2023-06-10T05:57:32;7.57;10.15;7.31
47709;PMS7003;33473;51.640;5.892;2023-06-10T06:10:52;9.01;9.93;7.2
47709;PMS7003;33473;51.640;5.892;2023-06-10T06:24:12;6.85;9.38;6.88
47709;PMS7003;33473;51.640;5.892;2023-06-10T06:37:31;6.73;9.27;6.44
47709;PMS7003;33473;51.640;5.892;2023-06-10T06:50:51;7.09;9.06;6.77
47709;PMS7003;33473;51.640;5.892;2023-06-10T07:04:11;7.09;9.06;6.77
47709;PMS7003;33473;51.640;5.892;2023-06-10T07:17:30;6.01;8.73;6.0
47709;PMS7003;33473;51.640;5.892;2023-06-10T07:30:50;5.41;7.86;6.22
47709;PMS7003;33473;51.640;5.892;2023-06-10T07:44:10;6.97;7.75;5.68
47709;PMS7003;33473;51.640;5.892;2023-06-10T07:57:29;4.93;7.75;5.57
47709;PMS7003;33473;51.640;5.892;2023-06-10T08:10:49;4.93;7.75;5.57
47709;PMS7003;33473;51.640;5.892;2023-06-10T08:24:09;5.05;7.75;5.57
47709;PMS7003;33473;51.640;5.892;2023-06-10T08:37:29;5.17;7.75;6.11
47709;PMS7003;33473;51.640;5.892;2023-06-10T08:50:48;4.81;7.53;5.9
47709;PMS7003;33473;51.640;5.892;2023-06-10T09:04:08;5.53;7.53;5.68
47709;PMS7003;33473;51.640;5.892;2023-06-10T09:17:28;5.65;7.31;5.68
47709;PMS7003;33473;51.640;5.892;2023-06-10T09:30:47;5.53;7.42;5.79
47709;PMS7003;33473;51.640;5.892;2023-06-10T09:44:07;5.05;7.86;5.9
47709;PMS7003;33473;51.640;5.892;2023-06-10T09:57:27;5.29;7.97;6.11
47709;PMS7003;33473;51.640;5.892;2023-06-10T10:10:46;5.29;7.86;6.33
47709;PMS7003;33473;51.640;5.892;2023-06-10T10:24:06;7.45;8.84;6.77
47709;PMS7003;33473;51.640;5.892;2023-06-10T10:37:26;5.53;8.18;6.77
47709;PMS7003;33473;51.640;5.892;2023-06-10T10:50:46;7.21;8.4;6.66
47709;PMS7003;33473;51.640;5.892;2023-06-10T11:04:05;5.89;8.62;7.09
47709;PMS7003;33473;51.640;5.892;2023-06-10T11:17:25;6.61;8.4;6.88
47709;PMS7003;33473;51.640;5.892;2023-06-10T11:30:45;5.41;8.18;6.66
47709;PMS7003;33473;51.640;5.892;2023-06-10T11:44:05;5.77;8.29;6.88
47709;PMS7003;33473;51.640;5.892;2023-06-10T11:57:24;6.73;8.84;7.2
47709;PMS7003;33473;51.640;5.892;2023-06-10T12:10:44;7.09;8.73;7.09
47709;PMS7003;33473;51.640;5.892;2023-06-10T12:24:04;6.13;8.84;7.31
47709;PMS7003;33473;51.640;5.892;2023-06-10T12:37:24;10.69;8.73;7.09
47709;PMS7003;33473;51.640;5.892;2023-06-10T12:50:43;6.13;8.73;7.09
47709;PMS7003;33473;51.640;5.892;2023-06-10T13:04:03;6.61;8.95;7.42
47709;PMS7003;33473;51.640;5.892;2023-06-10T13:17:23;5.53;8.29;7.09
47709;PMS7003;33473;51.640;5.892;2023-06-10T13:30:42;6.13;8.84;7.09
47709;PMS7003;33473;51.640;5.892;2023-06-10T13:44:02;6.13;8.73;7.2
47709;PMS7003;33473;51.640;5.892;2023-06-10T13:57:22;7.33;9.27;7.31
47709;PMS7003;33473;51.640;5.892;2023-06-10T14:10:42;5.89;8.62;7.31
47709;PMS7003;33473;51.640;5.892;2023-06-10T14:24:01;7.33;9.06;7.31
47709;PMS7003;33473;51.640;5.892;2023-06-10T14:37:21;6.37;9.06;7.09
47709;PMS7003;33473;51.640;5.892;2023-06-10T14:50:41;6.49;9.17;7.64
47709;PMS7003;33473;51.640;5.892;2023-06-10T15:04:00;7.09;9.49;7.64
47709;PMS7003;33473;51.640;5.892;2023-06-10T15:17:20;6.85;9.49;7.97
47709;PMS7003;33473;51.640;5.892;2023-06-10T15:30:40;7.33;9.06;7.31
47709;PMS7003;33473;51.640;5.892;2023-06-10T15:43:59;6.85;9.27;7.53
47709;PMS7003;33473;51.640;5.892;2023-06-10T15:57:19;6.49;9.17;7.31
47709;PMS7003;33473;51.640;5.892;2023-06-10T16:10:39;6.37;8.95;7.31
47709;PMS7003;33473;51.640;5.892;2023-06-10T16:23:59;6.13;8.84;7.42
47709;PMS7003;33473;51.640;5.892;2023-06-10T16:37:18;6.49;9.06;7.53
47709;PMS7003;33473;51.640;5.892;2023-06-10T16:50:38;6.49;9.17;7.42
47709;PMS7003;33473;51.640;5.892;2023-06-10T17:03:58;6.25;8.84;7.31
47709;PMS7003;33473;51.640;5.892;2023-06-10T17:17:17;7.93;9.82;7.97
47709;PMS7003;33473;51.640;5.892;2023-06-10T17:30:37;6.49;9.17;7.42
47709;PMS7003;33473;51.640;5.892;2023-06-10T17:43:57;5.77;8.4;6.99
47709;PMS7003;33473;51.640;5.892;2023-06-10T17:57:17;6.61;9.27;7.53
47709;PMS7003;33473;51.640;5.892;2023-06-10T18:10:36;6.25;8.84;6.99
47709;PMS7003;33473;51.640;5.892;2023-06-10T18:23:56;6.01;8.51;6.99
47709;PMS7003;33473;51.640;5.892;2023-06-10T18:37:16;5.89;8.62;7.09
47709;PMS7003;33473;51.640;5.892;2023-06-10T18:50:36;6.73;9.38;7.53
47709;PMS7003;33473;51.640;5.892;2023-06-10T19:03:55;6.97;9.49;7.31
47709;PMS7003;33473;51.640;5.892;2023-06-10T19:17:15;8.29;9.71;7.53
47709;PMS7003;33473;51.640;5.892;2023-06-10T19:30:35;7.57;10.04;7.86
47709;PMS7003;33473;51.640;5.892;2023-06-10T19:43:54;6.61;9.27;7.64
47709;PMS7003;33473;51.640;5.892;2023-06-10T19:57:14;7.09;9.49;7.42
47709;PMS7003;33473;51.640;5.892;2023-06-10T20:10:34;8.17;10.36;8.29
47709;PMS7003;33473;51.640;5.892;2023-06-10T20:23:53;8.53;9.93;7.75
47709;PMS7003;33473;51.640;5.892;2023-06-10T20:37:13;8.41;10.04;7.97
47709;PMS7003;33473;51.640;5.892;2023-06-10T20:50:33;7.93;10.36;8.18
47709;PMS7003;33473;51.640;5.892;2023-06-10T21:03:52;8.17;10.47;8.18
47709;PMS7003;33473;51.640;5.892;2023-06-10T21:17:12;8.29;10.69;8.18
47709;PMS7003;33473;51.640;5.892;2023-06-10T21:30:32;8.53;10.91;8.51
47709;PMS7003;33473;51.640;5.892;2023-06-10T21:43:51;7.69;10.26;7.86
47709;PMS7003;33473;51.640;5.892;2023-06-10T21:57:11;8.41;10.8;8.29
47709;PMS7003;33473;51.640;5.892;2023-06-10T22:10:31;9.85;11.02;8.51
47709;PMS7003;33473;51.640;5.892;2023-06-10T22:23:51;8.89;11.35;8.84
47709;PMS7003;33473;51.640;5.892;2023-06-10T22:37:10;11.53;12.22;9.27
47709;PMS7003;33473;51.640;5.892;2023-06-10T22:50:30;11.05;12.33;9.27
47709;PMS7003;33473;51.640;5.892;2023-06-10T23:03:50;10.69;12.54;9.71
47709;PMS7003;33473;51.640;5.892;2023-06-10T23:17:09;10.81;12.87;9.93
47709;PMS7003;33473;51.640;5.892;2023-06-10T23:30:29;11.29;12.65;9.93
47709;PMS7003;33473;51.640;5.892;2023-06-10T23:43:49;11.29;13.42;10.04
47709;PMS7003;33473;51.640;5.892;2023-06-10T23:57:08;12.61;13.74;10.91
